CheckWX is a tool to help pilots better visualize weather data.  It is not intended as a substitute for an official pre-flight weather briefing.

04:58:27 UTC

EYVI METAR
Vilnius International Airport
Vilnius, Lithuania
Current

38 mins ago

EYVI 040420Z 27009KT 9999 BKN010 01/M01 Q1015 NOSIG
Observed
Apr-4 @ 04:20 UTC
Wind
  • 270° at 9 KTS
Visibility
10,000+ meters
Flight Rules
MVFR
Cloud Levels
  • Broken at 1,000' AGL
Temperature
C / 34°F
Dewpoint
-1°C / 30°F
Humidity
87%
Altimeter
29.97" Hg
Pressure
1014.92 hPa
Previous

1 hour ago

EYVI 040350Z 26009KT 9999 BKN012 01/M02 Q1014 NOSIG
Observed
Apr-4 @ 03:50 UTC
Wind
  • 260° at 9 KTS
Visibility
10,000+ meters
Flight Rules
MVFR
Cloud Levels
  • Broken at 1,200' AGL
Temperature
C / 34°F
Dewpoint
-2°C / 28°F
Humidity
81%
Altimeter
29.94" Hg
Pressure
1013.92 hPa
Previous

2 hours ago

EYVI 040320Z 26009KT 9999 BKN014 01/M02 Q1013 NOSIG
Observed
Apr-4 @ 03:20 UTC
Wind
  • 260° at 9 KTS
Visibility
10,000+ meters
Flight Rules
MVFR
Cloud Levels
  • Broken at 1,400' AGL
Temperature
C / 34°F
Dewpoint
-2°C / 28°F
Humidity
81%
Altimeter
29.91" Hg
Pressure
1012.92 hPa